METAR Data
IDs: Format: Raw Decoded Include TAF

Data at: 2240 UTC 25 Oct 2021

PARS 252156Z AUTO 30004KT CLR M01/M04 A2940 RMK AO2 SLP959 T10061044 PWINO FZRANO RVRNO $
PARS 252056Z AUTO 31005KT CLR M03/M04 A2939 RMK AO2 SLP957 T10331044 51004 PWINO FZRANO RVRNO $
PARS 251956Z AUTO 32003KT CLR M06/M06 A2939 RMK AO2 SLP956 T10561061 PWINO FZRANO RVRNO $
PARS 251856Z AUTO 00000KT FEW008 M06/M06 A2939 RMK AO2 SLP954 T10561061 PWINO FZRANO RVRNO $
PARS 251821Z AUTO 00000KT SCT008 M05/M06 A2938 RMK AO2 PWINO FZRANO RVRNO $
PARS 251756Z AUTO 30004KT BKN008 M06/M06 A2938 RMK AO2 CIG 007V011 SLP952 T10561061 11022 21056 51003 PWINO FZRANO RVRNO $
PARS 251730Z AUTO 31004KT BKN008 M04/M06 A2938 RMK AO2 CIG 007V011 PWINO FZRANO RVRNO $
PARS 251656Z AUTO 30004KT SCT008 M04/M06 A2938 RMK AO2 SLP952 T10441056 PWINO FZRANO RVRNO $
PARS 251551Z AUTO 31005KT BKN008 M04/M05 A2938 RMK AO2 CIG 005V011 SLP950 T10391050 PWINO FZRANO RVRNO $
PARS 251550Z AUTO 31005KT BKN008 M04/M05 A2938 RMK AO2 CIG 005V011 PWINO FZRANO RVRNO $
PARS 251456Z AUTO 28004KT SCT030 M03/M06 A2937 RMK AO2 SLP949 T10331056 56006 PWINO FZRANO RVRNO $
PARS 251356Z AUTO 28003KT OVC028 M03/M05 A2938 RMK AO2 SLP950 T10281050 PWINO FZRANO RVRNO $
PARS 251256Z AUTO VRB03KT OVC024 M02/M05 A2938 RMK AO2 SLP952 T10221050 PWINO FZRANO RVRNO $
PARS 251156Z AUTO 00000KT OVC024 M03/M05 A2939 RMK AO2 SLP954 T10331050 11022 21050 56005 PWINO FZRANO RVRNO $
PARS 251056Z AUTO VRB03KT OVC028 M03/M05 A2939 RMK AO2 SLP955 T10281050 PWINO FZRANO RVRNO $
PARS 251015Z AUTO 29003KT OVC028 M02/M04 A2939 RMK AO2 PWINO FZRANO RVRNO $
PARS 250956Z AUTO 28004KT OVC030 M02/M04 A2940 RMK AO2 SLP957 T10221044 PWINO FZRANO RVRNO $
PARS 250856Z AUTO 28003KT OVC032 M03/M04 A2940 RMK AO2 SLP960 T10281044 56004 PWINO FZRANO RVRNO $
PARS 250756Z AUTO 27003KT OVC030 M03/M04 A2941 RMK AO2 SLP961 T10331044 400171056 PWINO FZRANO RVRNO $
PARS 250656Z AUTO 00000KT FEW026 OVC032 M04/M06 A2941 RMK AO2 SLP962 T10391056 PWINO FZRANO RVRNO $
PARS 250556Z AUTO 26004KT OVC034 M05/M06 A2942 RMK AO2 SLP964 T10501061 10017 21056 58010 PWINO FZRANO RVRNO $
PARS 250456Z AUTO 26003KT BKN042 BKN050 M05/M06 A2943 RMK AO2 SLP969 T10501061 PWINO FZRANO RVRNO $
PARS 250356Z AUTO 25003KT CLR M04/M05 A2944 RMK AO2 SLP971 T10391050 PWINO FZRANO RVRNO $
PARS 250256Z AUTO 00000KT CLR M02/M04 A2945 RMK AO2 SLP974 T10221044 56010 PWINO FZRANO RVRNO $
PARS 250156Z AUTO 24003KT SCT027 BKN038 01/M05 A2946 RMK AO2 SLP979 T00061050 PWINO FZRANO RVRNO $
PARS 250151Z AUTO 25003KT BKN027 BKN041 01/M05 A2946 RMK AO2 PWINO FZRANO RVRNO $
PARS 250144Z AUTO 25005KT SCT027 BKN039 01/M05 A2946 RMK AO2 PWINO FZRANO RVRNO $
PARS 250135Z AUTO 25006KT BKN027 01/M05 A2947 RMK AO2 PWINO FZRANO RVRNO $
PARS 250056Z AUTO 24006KT CLR 02/M04 A2948 RMK AO2 SLP984 T00171039 PWINO FZRANO RVRNO $
PARS 242356Z AUTO 27005KT CLR 01/M03 A2949 RMK AO2 SLP990 T00111028 10017 21039 58014 PWINO FZRANO RVRNO $
PARS 242330Z AUTO 24004KT SCT014 01/M03 A2950 RMK AO2 PWINO FZRANO RVRNO $
PARS 242256Z AUTO 30004KT BKN012 OVC060 01/M02 A2951 RMK AO2 SLP996 T00111022 PWINO FZRANO RVRNO $
PARS 242245Z AUTO 00000KT BKN012 OVC060 00/M02 A2952 RMK AO2 PWINO FZRANO RVRNO $
PARS 242156Z AUTO 26005KT OVC060 M01/M02 A2953 RMK AO2 SLP002 T10061022 PWINO FZRANO RVRNO $
PARS 242140Z AUTO 24005KT SCT009 OVC065 M01/M02 A2953 RMK AO2 PWINO FZRANO RVRNO $
PARS 242056Z AUTO VRB03KT BKN007 OVC060 M01/M02 A2953 RMK AO2 SLP003 T10111022 57001 PWINO FZRANO RVRNO $
PARS 242040Z AUTO 29003KT BKN007 BKN034 OVC060 M01/M02 A2953 RMK AO2 PWINO FZRANO RVRNO $
PARS 242028Z AUTO VRB04KT SCT007 BKN030 OVC060 M02/M03 A2953 RMK AO2 PWINO FZRANO RVRNO $
PARS 242015Z AUTO 27004KT SCT007 BKN027 OVC060 M02/M03 A2953 RMK AO2 PWINO FZRANO RVRNO $
PARS 241956Z AUTO 25005KT OVC025 M02/M03 A2953 RMK AO2 SLP004 T10221028 PWINO FZRANO RVRNO $
PARS 241947Z AUTO 25006KT BKN025 BKN036 OVC060 M02/M03 A2953 RMK AO2 PWINO FZRANO RVRNO $
PARS 241925Z AUTO 25005KT SCT025 OVC036 M03/M03 A2953 RMK AO2 PWINO FZRANO RVRNO $
PARS 241856Z AUTO 25005KT BKN021 BKN030 OVC060 M03/M04 A2953 RMK AO2 SLP004 T10331044 PWINO FZRANO RVRNO $
PARS 241847Z AUTO 24004KT FEW012 BKN021 OVC060 M04/M04 A2953 RMK AO2 PWINO FZRANO RVRNO $
PARS 241836Z AUTO 24003KT SCT012 BKN060 M04/M04 A2953 RMK AO2 PWINO FZRANO RVRNO $
PARS 241827Z AUTO 00000KT BKN014 BKN027 BKN060 M03/M04 A2953 RMK AO2 PWINO FZRANO RVRNO $
PARS 241816Z AUTO 27004KT SCT027 SCT060 M03/M04 A2954 RMK AO2 PWINO FZRANO RVRNO $
PARS 241756Z AUTO 26004KT BKN027 OVC055 M03/M04 A2953 RMK AO2 SLP004 T10331044 11006 21033 58006 PWINO FZRANO RVRNO $
PARS 241708Z AUTO 27005KT BKN027 M03/M04 A2954 RMK AO2 PWINO FZRANO RVRNO $
PARS 241656Z AUTO 26004KT SCT027 M03/M04 A2954 RMK AO2 SLP007 T10331044 PWINO FZRANO RVRNO $
PARS 241556Z AUTO 25007KT FEW022 M03/M04 A2955 RMK AO2 SLP010 T10331039 PWINO FZRANO RVRNO $
PARS 241456Z AUTO 25006KT CLR M03/M03 A2955 RMK AO2 SLP010 T10281033 51011 PWINO FZRANO RVRNO $
PARS 241356Z AUTO 25005KT CLR M02/M03 A2954 RMK AO2 SLP005 T10221033 PWINO FZRANO RVRNO $
PARS 241256Z AUTO 25006KT SCT024 M01/M03 A2953 RMK AO2 SLP004 T10111028 PWINO FZRANO RVRNO $
PARS 241238Z AUTO 25004KT BKN022 M01/M03 A2953 RMK AO2 PWINO FZRANO RVRNO $
PARS 241156Z AUTO 27006KT FEW019 M01/M02 A2952 RMK AO2 SLP999 T10061022 10011 21006 51013 PWINO FZRANO RVRNO $
PARS 241152Z AUTO 27005KT FEW019 00/M02 A2952 RMK AO2 PWINO FZRANO RVRNO $
PARS 241121Z AUTO 29007KT BKN021 OVC034 01/M02 A2951 RMK AO2 PWINO FZRANO RVRNO $
PARS 241056Z AUTO 28004KT SCT019 OVC034 01/M02 A2950 RMK AO2 SLP992 T00061022 PWINO FZRANO RVRNO $